Terminal Aerodrome Forecast
Issued by NWS Charleston, WV

Current Version | Previous Version | Graphics & Text | Print | Product List | Glossary On
Versions: 1 2 3 4 5 6 7 8 9 10 11 12 13 14 15 16 17 18 19 20 21 22 23 24 25 26 27 28 29 30
000
FTUS41 KRLX 211200 AAA
TAFPKB
TAF AMD
KPKB 211230Z 2113/2212 VRB03KT P6SM OVC012
     FM211300 27004KT P6SM OVC035
     FM211800 30008KT P6SM OVC025
     FM212000 31008KT P6SM OVC035
     FM220000 31007KT P6SM OVC025
     FM220600 31006KT P6SM OVC015
     FM221100 31005KT P6SM OVC015=

USA.gov is the U.S. government's official web portal to all federal, state and local government web resources and services.